Flight Track Log - Related Links

Times and Time Zones

All times are in EDT time to prevent confusion due to time zone crossing. See the SWA1258 flight status page for this flight to view local times or setup timezone preferences in your user account.

Time Position Orientation Groundspeed Altitude Reporting Facility
EDT Latitude Longitude Course Direction KTS MPH feet Rate Location/Type
Tue 11:06:15 PM 32.9067 -117.4382 133° Southeast  Level FlightAware Approximate
Tue 11:07:15 PM 32.9824 -117.4839 138° Southeast  Level FlightAware Approximate
Tue 11:08:15 PM 33.0086 -117.5787 132° Southeast  Level FlightAware Approximate
Tue 11:09:15 PM 33.0850 -117.6230 136° Southeast  Level FlightAware Approximate
Tue 11:10:15 PM 33.1014 -117.7180 131° Southeast  Level FlightAware Approximate
Tue 11:11:15 PM 33.1475 -117.7904 131° Southeast  Level FlightAware Approximate
Tue 11:12:15 PM 33.1931 -117.8724 130° Southeast  Level FlightAware Approximate
Tue 11:13:15 PM 33.2168 -117.9672 127° Southeast  Level FlightAware Approximate
Tue 11:14:15 PM 33.2954 -118.0058 130° Southeast  Level FlightAware Approximate
Tue 11:15:06 PM 32.7428 -117.2300 290° West 164 189 2,300  Level Los Angeles Center
Tue 11:16:06 PM 32.7650 -117.3042 288° West 242 278 6,200 3,800 Climbing Los Angeles Center
Tue 11:17:06 PM 32.7811 -117.3636 313° West 256 295 9,900 3,650 Climbing Los Angeles Center
Tue 11:18:06 PM 32.8450 -117.4439 315° West 289 333 13,500 3,800 Climbing Los Angeles Center
Tue 11:19:06 PM 32.9169 -117.5289 316° Northwest 320 368 17,500 3,800 Climbing Los Angeles Center
Tue 11:20:06 PM 32.9931 -117.6169 329° Northwest 355 409 21,100 3,550 Climbing Los Angeles Center
Tue 11:21:06 PM 33.0967 -117.6906 336° Northwest 384 442 24,600 2,900 Climbing Los Angeles Center
Tue 11:22:06 PM 33.2064 -117.7497 337° Northwest 402 463 26,900 2,200 Climbing Los Angeles Center
Tue 11:23:06 PM 33.3206 -117.8089 335° Northwest 422 486 29,000 2,200 Climbing Los Angeles Center
Tue 11:24:06 PM 33.4386 -117.8736 335° Northwest 447 514 31,300 2,400 Climbing Los Angeles Center
Tue 11:25:06 PM 33.5606 -117.9408 337° Northwest 459 528 33,800 2,450 Climbing Los Angeles Center
Tue 11:26:06 PM 33.6767 -118.0008 337° Northwest 465 535 36,200 2,100 Climbing Los Angeles Center
Tue 11:27:06 PM 33.7947 -118.0608 335° Northwest 460 529 38,000 900 Climbing Los Angeles Center
Tue 11:28:06 PM 33.9106 -118.1261 335° Northwest 460 529 38,000 50 Level Los Angeles Center
Tue 11:29:06 PM 34.0264 -118.1914 334° Northwest 455 524 38,100  Climbing Los Angeles Center
Tue 11:30:06 PM 34.1419 -118.2597 335° Northwest 455 524 38,000 -50 Descending Los Angeles Center
Tue 11:31:06 PM 34.2556 -118.3228 335° Northwest 455 524 38,000  Level Los Angeles Center
Tue 11:32:06 PM 34.3589 -118.3808 336° Northwest 455 524 38,000  Level Los Angeles Center
Tue 11:33:06 PM 34.4747 -118.4444 335° Northwest 455 524 38,000  Level Los Angeles Center
Tue 11:34:06 PM 34.5922 -118.5108 335° Northwest 455 524 38,000 500 Level Los Angeles Center
Tue 11:35:06 PM 34.7078 -118.5772 337° Northwest 455 524 39,000 1,000 Climbing Los Angeles Center
Tue 11:36:06 PM 34.8233 -118.6364 337° Northwest 455 524 40,000 500 Climbing Los Angeles Center
Tue 11:37:06 PM 34.9369 -118.6956 337° Northwest 450 518 40,000  Level Los Angeles Center
Tue 11:38:06 PM 35.0506 -118.7550 335° Northwest 450 518 40,000  Level Los Angeles Center
Tue 11:39:06 PM 35.1658 -118.8197 334° Northwest 450 518 40,000  Level Los Angeles Center
Tue 11:40:06 PM 35.2792 -118.8869 335° Northwest 450 518 40,000  Level Los Angeles Center
Tue 11:41:06 PM 35.3944 -118.9519 335° Northwest 455 524 40,000  Level Los Angeles Center
Tue 11:42:06 PM 35.5100 -119.0172 336° Northwest 455 524 40,000  Level Los Angeles Center
Tue 11:43:06 PM 35.6272 -119.0828 334° Northwest 455 524 40,000  Level Los Angeles Center
Tue 11:44:03 PM 35.7378 -119.1497 335° Northwest 455 524 40,000  Level Oakland Center
Tue 11:45:03 PM 35.8556 -119.2161 330° Northwest 449 517 40,000  Level Oakland Center
Tue 11:46:03 PM 35.9653 -119.2931 330° Northwest 449 517 40,000  Level Oakland Center
Tue 11:47:03 PM 36.0769 -119.3728 330° Northwest 459 528 40,000  Level Oakland Center
Tue 11:48:03 PM 36.1864 -119.4503 330° Northwest 465 535 40,000  Level Oakland Center
Tue 11:49:03 PM 36.2958 -119.5281 330° Northwest 460 529 40,000  Level Oakland Center
Tue 11:50:03 PM 36.4072 -119.6086 330° Northwest 460 529 40,000  Level Oakland Center
Tue 11:51:03 PM 36.5147 -119.6867 331° Northwest 455 524 40,000 -50 Level Oakland Center
Tue 11:52:03 PM 36.6261 -119.7650 329° Northwest 450 518 39,900 -550 Descending Oakland Center
Tue 11:53:03 PM 36.7375 -119.8489 330° Northwest 450 518 38,900 -950 Descending Oakland Center
Tue 11:54:03 PM 36.8486 -119.9275 330° Northwest 450 518 38,000 -500 Descending Oakland Center
Tue 11:55:03 PM 36.9600 -120.0092 331° Northwest 450 518 37,900 -1,350 Descending Oakland Center
Tue 11:56:03 PM 37.0692 -120.0858 331° Northwest 450 518 35,300 -3,200 Descending Oakland Center
Tue 11:57:03 PM 37.1886 -120.1706 330° Northwest 450 518 31,500 -3,850 Descending Oakland Center
Tue 11:58:03 PM 37.2956 -120.2478 330° Northwest 450 518 27,600 -3,400 Descending Oakland Center
Tue 11:59:03 PM 37.4003 -120.3253 323° Northwest 450 518 24,700 -2,100 Descending Oakland Center
Wed 12:00:03 AM 37.4944 -120.4133 322° Northwest 436 502 23,400 -1,212 Descending Oakland Center
Wed 12:00:47 AM 37.5667 -120.4833 320° Northwest 400 460 22,600 -1,000 Descending Northern Cal TRACON
Wed 12:02:03 AM 37.6642 -120.5853 324° Northwest 395 455 21,400 -992 Descending Oakland Center
Wed 12:02:48 AM 37.7333 -120.6500 322° Northwest 386 444 20,600 -1,029 Descending Northern Cal TRACON
Wed 12:03:48 AM 37.8167 -120.7333 322° Northwest 383 441 19,600 -1,000 Descending Northern Cal TRACON
Wed 12:04:48 AM 37.9000 -120.8167 322° Northwest 384 442 18,600 -950 Descending Northern Cal TRACON
Wed 12:05:48 AM 37.9833 -120.9000 317° Northwest 386 444 17,700 -1,156 Descending Northern Cal TRACON
Wed 12:07:03 AM 38.0758 -121.0078 314° West 380 437 16,000 -850 Descending Oakland Center
Wed 12:07:48 AM 38.1333 -121.0833 310° West 373 429 16,000 -571 Level Northern Cal TRACON
Wed 12:08:48 AM 38.2000 -121.1833 309° West 371 427 15,000 -1,800 Descending Northern Cal TRACON
Wed 12:10:48 AM 38.3167 -121.3667 310° West 350 403 10,600 -1,657 Descending Northern Cal TRACON
Wed 12:11:49 AM 38.3833 -121.4667 316° Northwest 343 395 10,000 -298 Descending Northern Cal TRACON
Wed 12:12:49 AM 38.4500 -121.5500 328° Northwest 340 391 10,000 -850 Level Northern Cal TRACON
Wed 12:13:49 AM 38.5333 -121.6167 330° Northwest 323 372 8,300 -1,750 Descending Northern Cal TRACON
Wed 12:14:49 AM 38.6000 -121.6667 339° North 303 349 6,500 -1,550 Descending Northern Cal TRACON
Wed 12:15:49 AM 38.6667 -121.7000 349° North 284 327 5,200 -950 Descending Northern Cal TRACON
Wed 12:16:49 AM 38.7333 -121.7167 15° North 242 278 4,600 -933 Descending Northern Cal TRACON
Wed 12:18:49 AM 38.8333 -121.6833 113° Southeast 192 221 2,400 -933 Descending Northern Cal TRACON
Wed 12:19:49 AM 38.8167 -121.6333 142° Southeast 157 181 1,800 -496 Descending Northern Cal TRACON
Wed 12:20:50 AM 38.7833 -121.6000 180° South 146 168 1,400 -522 Descending Northern Cal TRACON
Wed 12:21:44 AM 38.7500 -121.6000 180° South 125 144 800 -667 Descending Northern Cal TRACON

Login

Don't have an account? Register now (free) for customized features, flight alerts, and more!